RYR8FP LIPX-LICJ
Flight info
| Callsign | RYR8FP |
|---|---|
| Flight time | 1h 13m |
| Altitude | 37000 |
| Route | TUVDE Y922 KOPER DCT LUMAV DCT GOXIN DCT BIKTU DCT NUKNI DCT AMTEL DCT TAQ DCT RONAB DCT GIANO |
| Aircraft | B738/M-SDE3FGILRWY/SB1 |
Departure
| Time | 2026-04-30 20:49 |
|---|---|
| Airport | Verona Villafranca Valerio Catullo Airport (LIPX) |
Arrival
| Time | 2026-04-30 22:02 |
|---|---|
| Airport | Falcone–Borsellino Airport (LICJ) |
| Time | Latitude | Longitude | Altitude | Speed | Heading |
|---|---|---|---|---|---|
| 2026-04-30 20:13 | 45.40186 | 10.90429 | 241 ft | 0 kts | 182° |
| 2026-04-30 20:41 | 45.40201 | 10.90429 | 241 ft | 3 kts | 162° |
| 2026-04-30 20:41 | 45.40218 | 10.90412 | 241 ft | 3 kts | 145° |
| 2026-04-30 20:41 | 45.40232 | 10.90407 | 241 ft | 3 kts | 174° |
| 2026-04-30 20:42 | 45.40247 | 10.90394 | 241 ft | 3 kts | 134° |
| 2026-04-30 20:42 | 45.40261 | 10.90373 | 241 ft | 3 kts | 136° |
| 2026-04-30 20:42 | 45.40283 | 10.90344 | 241 ft | 0 kts | 136° |
| 2026-04-30 20:45 | 45.40276 | 10.90441 | 241 ft | 10 kts | 48° |
| 2026-04-30 20:45 | 45.40341 | 10.90538 | 241 ft | 16 kts | 46° |
| 2026-04-30 20:45 | 45.40420 | 10.90653 | 241 ft | 16 kts | 46° |
| 2026-04-30 20:46 | 45.40602 | 10.90654 | 241 ft | 10 kts | 335° |
| 2026-04-30 20:46 | 45.40633 | 10.90593 | 243 ft | 4 kts | 265° |
| 2026-04-30 20:47 | 45.40631 | 10.90574 | 244 ft | 4 kts | 259° |
| 2026-04-30 20:47 | 45.40620 | 10.90503 | 246 ft | 10 kts | 257° |
| 2026-04-30 20:48 | 45.40616 | 10.90375 | 247 ft | 9 kts | 224° |
| 2026-04-30 20:48 | 45.40459 | 10.90147 | 245 ft | 66 kts | 226° |
| 2026-04-30 20:48 | 45.39977 | 10.89445 | 242 ft | 130 kts | 225° |
| 2026-04-30 20:48 | 45.39213 | 10.88365 | 314 ft | 173 kts | 224° |
| 2026-04-30 20:49 | 45.38378 | 10.87140 | 997 ft | 173 kts | 227° |
| 2026-04-30 20:49 | 45.37766 | 10.85664 | 1714 ft | 177 kts | 247° |
| 2026-04-30 20:49 | 45.37310 | 10.83918 | 2042 ft | 201 kts | 248° |
| 2026-04-30 20:50 | 45.36223 | 10.79847 | 2806 ft | 230 kts | 247° |
| 2026-04-30 20:50 | 45.35636 | 10.77737 | 3423 ft | 233 kts | 246° |
| 2026-04-30 20:50 | 45.34997 | 10.75523 | 3787 ft | 253 kts | 242° |
| 2026-04-30 20:50 | 45.33815 | 10.73594 | 4139 ft | 265 kts | 209° |
| 2026-04-30 20:51 | 45.32081 | 10.72775 | 4824 ft | 264 kts | 181° |
| 2026-04-30 20:51 | 45.28959 | 10.75048 | 6124 ft | 267 kts | 120° |
| 2026-04-30 20:51 | 45.28419 | 10.77557 | 6800 ft | 270 kts | 90° |
| 2026-04-30 20:52 | 45.28512 | 10.80190 | 7517 ft | 271 kts | 84° |
| 2026-04-30 20:52 | 45.28678 | 10.82876 | 8251 ft | 274 kts | 83° |
| 2026-04-30 20:52 | 45.29000 | 10.88335 | 9809 ft | 280 kts | 83° |
| 2026-04-30 20:53 | 45.29144 | 10.91111 | 10534 ft | 285 kts | 83° |
| 2026-04-30 20:53 | 45.29286 | 10.94017 | 10805 ft | 307 kts | 83° |
| 2026-04-30 20:53 | 45.29431 | 10.97147 | 11051 ft | 327 kts | 83° |
| 2026-04-30 20:54 | 45.29713 | 11.03731 | 12372 ft | 337 kts | 83° |
| 2026-04-30 20:54 | 45.29850 | 11.07020 | 13166 ft | 339 kts | 83° |
| 2026-04-30 20:54 | 45.29989 | 11.10388 | 13973 ft | 342 kts | 83° |
| 2026-04-30 20:55 | 45.30257 | 11.17214 | 15407 ft | 350 kts | 85° |
| 2026-04-30 20:55 | 45.30032 | 11.20705 | 16117 ft | 360 kts | 97° |
| 2026-04-30 20:55 | 45.29334 | 11.24159 | 16835 ft | 369 kts | 108° |
| 2026-04-30 20:56 | 45.27068 | 11.30835 | 18215 ft | 380 kts | 112° |
| 2026-04-30 20:56 | 45.25861 | 11.34210 | 18852 ft | 385 kts | 112° |
| 2026-04-30 20:56 | 45.23455 | 11.41021 | 20072 ft | 391 kts | 111° |
| 2026-04-30 20:57 | 45.22239 | 11.44502 | 20673 ft | 395 kts | 111° |
| 2026-04-30 20:57 | 45.21017 | 11.48013 | 21279 ft | 398 kts | 111° |
| 2026-04-30 20:57 | 45.19782 | 11.51564 | 21875 ft | 402 kts | 111° |
| 2026-04-30 20:58 | 45.17191 | 11.58707 | 22849 ft | 418 kts | 120° |
| 2026-04-30 20:58 | 45.15100 | 11.61649 | 23453 ft | 433 kts | 143° |
| 2026-04-30 20:58 | 45.12374 | 11.63440 | 24037 ft | 441 kts | 163° |
| 2026-04-30 20:58 | 45.09312 | 11.63923 | 24483 ft | 447 kts | 181° |
| 2026-04-30 20:59 | 45.03039 | 11.63373 | 25367 ft | 454 kts | 184° |
| 2026-04-30 20:59 | 44.99870 | 11.63056 | 25798 ft | 458 kts | 184° |
| 2026-04-30 21:00 | 44.93514 | 11.62514 | 26694 ft | 462 kts | 184° |
| 2026-04-30 21:00 | 44.87048 | 11.62044 | 27508 ft | 468 kts | 183° |
| 2026-04-30 21:01 | 44.80494 | 11.61567 | 28331 ft | 473 kts | 184° |
| 2026-04-30 21:01 | 44.77192 | 11.61278 | 28746 ft | 475 kts | 185° |
| 2026-04-30 21:01 | 44.70600 | 11.60626 | 29528 ft | 480 kts | 185° |
| 2026-04-30 21:02 | 44.67247 | 11.60289 | 29873 ft | 483 kts | 185° |
| 2026-04-30 21:02 | 44.63880 | 11.59957 | 30219 ft | 485 kts | 185° |
| 2026-04-30 21:02 | 44.60505 | 11.59629 | 30527 ft | 488 kts | 185° |
| 2026-04-30 21:02 | 44.57152 | 11.59308 | 30811 ft | 489 kts | 186° |
| 2026-04-30 21:03 | 44.53749 | 11.58984 | 31119 ft | 491 kts | 186° |
| 2026-04-30 21:03 | 44.50328 | 11.58659 | 31387 ft | 493 kts | 186° |
| 2026-04-30 21:03 | 44.46901 | 11.58333 | 31688 ft | 494 kts | 186° |
| 2026-04-30 21:03 | 44.43463 | 11.58007 | 32067 ft | 493 kts | 186° |
| 2026-04-30 21:04 | 44.40041 | 11.57683 | 32471 ft | 492 kts | 186° |
| 2026-04-30 21:04 | 44.36623 | 11.57359 | 32791 ft | 493 kts | 186° |
| 2026-04-30 21:04 | 44.29761 | 11.56708 | 33424 ft | 494 kts | 186° |
| 2026-04-30 21:05 | 44.26331 | 11.56384 | 33792 ft | 493 kts | 186° |
| 2026-04-30 21:05 | 44.22904 | 11.56060 | 34151 ft | 493 kts | 186° |
| 2026-04-30 21:05 | 44.19524 | 11.55740 | 34441 ft | 493 kts | 186° |
| 2026-04-30 21:05 | 44.16095 | 11.55416 | 34718 ft | 493 kts | 186° |
| 2026-04-30 21:06 | 44.12674 | 11.55092 | 35043 ft | 491 kts | 186° |
| 2026-04-30 21:06 | 44.09264 | 11.54769 | 35348 ft | 490 kts | 186° |
| 2026-04-30 21:06 | 44.05854 | 11.54447 | 35596 ft | 491 kts | 186° |
| 2026-04-30 21:06 | 44.02489 | 11.54130 | 35821 ft | 491 kts | 186° |
| 2026-04-30 21:07 | 43.99072 | 11.53900 | 36141 ft | 491 kts | 181° |
| 2026-04-30 21:07 | 43.95656 | 11.54117 | 36491 ft | 490 kts | 178° |
| 2026-04-30 21:07 | 43.92259 | 11.54494 | 36759 ft | 489 kts | 177° |
| 2026-04-30 21:07 | 43.88856 | 11.54891 | 37001 ft | 490 kts | 177° |
| 2026-04-30 21:08 | 43.85493 | 11.55242 | 37248 ft | 489 kts | 178° |
| 2026-04-30 21:08 | 43.82088 | 11.55557 | 37281 ft | 492 kts | 179° |
| 2026-04-30 21:08 | 43.75272 | 11.56149 | 37282 ft | 485 kts | 179° |
| 2026-04-30 21:09 | 43.68604 | 11.56742 | 37276 ft | 481 kts | 179° |
| 2026-04-30 21:09 | 43.61924 | 11.57339 | 37274 ft | 480 kts | 179° |
| 2026-04-30 21:10 | 43.55259 | 11.57930 | 37273 ft | 479 kts | 179° |
| 2026-04-30 21:10 | 43.48607 | 11.58518 | 37275 ft | 479 kts | 179° |
| 2026-04-30 21:11 | 43.41969 | 11.59106 | 37258 ft | 478 kts | 180° |
| 2026-04-30 21:11 | 43.35316 | 11.59693 | 37271 ft | 478 kts | 180° |
| 2026-04-30 21:12 | 43.28666 | 11.60278 | 37265 ft | 478 kts | 180° |
| 2026-04-30 21:12 | 43.22046 | 11.60859 | 37259 ft | 478 kts | 180° |
| 2026-04-30 21:13 | 43.15388 | 11.61613 | 37267 ft | 479 kts | 179° |
| 2026-04-30 21:13 | 43.08737 | 11.62486 | 37259 ft | 480 kts | 179° |
| 2026-04-30 21:14 | 43.02109 | 11.63344 | 37249 ft | 479 kts | 179° |
| 2026-04-30 21:14 | 42.95452 | 11.64180 | 37252 ft | 480 kts | 179° |
| 2026-04-30 21:15 | 42.88820 | 11.65003 | 37244 ft | 480 kts | 179° |
| 2026-04-30 21:15 | 42.82164 | 11.65826 | 37207 ft | 480 kts | 179° |
| 2026-04-30 21:16 | 42.75537 | 11.66645 | 37218 ft | 480 kts | 179° |
| 2026-04-30 21:16 | 42.68863 | 11.67469 | 37218 ft | 480 kts | 179° |
| 2026-04-30 21:17 | 42.62196 | 11.68289 | 37197 ft | 481 kts | 180° |
| 2026-04-30 21:17 | 42.55525 | 11.69108 | 37198 ft | 481 kts | 180° |
| 2026-04-30 21:18 | 42.48882 | 11.69922 | 37198 ft | 482 kts | 180° |
| 2026-04-30 21:18 | 42.42192 | 11.70741 | 37184 ft | 482 kts | 180° |
| 2026-04-30 21:19 | 42.35503 | 11.71558 | 37178 ft | 481 kts | 180° |
| 2026-04-30 21:19 | 42.28822 | 11.72372 | 37185 ft | 481 kts | 180° |
| 2026-04-30 21:20 | 42.22186 | 11.73178 | 37177 ft | 481 kts | 180° |
| 2026-04-30 21:20 | 42.16643 | 11.73724 | 37177 ft | 478 kts | 182° |
| 2026-04-30 21:21 | 42.09989 | 11.74147 | 37183 ft | 477 kts | 183° |
| 2026-04-30 21:22 | 42.00067 | 11.74764 | 37180 ft | 476 kts | 183° |
| 2026-04-30 21:23 | 41.86834 | 11.75674 | 37191 ft | 475 kts | 183° |
| 2026-04-30 21:23 | 41.76949 | 11.76360 | 37161 ft | 474 kts | 183° |
| 2026-04-30 21:24 | 41.70350 | 11.76816 | 37155 ft | 475 kts | 183° |
| 2026-04-30 21:24 | 41.63731 | 11.77271 | 37157 ft | 475 kts | 183° |
| 2026-04-30 21:25 | 41.53828 | 11.77951 | 37153 ft | 476 kts | 184° |
| 2026-04-30 21:26 | 41.43909 | 11.78630 | 37155 ft | 478 kts | 184° |
| 2026-04-30 21:27 | 41.33949 | 11.79311 | 37153 ft | 477 kts | 184° |
| 2026-04-30 21:27 | 41.27326 | 11.79762 | 37155 ft | 478 kts | 184° |
| 2026-04-30 21:28 | 41.17342 | 11.80441 | 37164 ft | 477 kts | 184° |
| 2026-04-30 21:29 | 41.07411 | 11.81114 | 37164 ft | 476 kts | 184° |
| 2026-04-30 21:30 | 40.90895 | 11.82228 | 37162 ft | 475 kts | 185° |
| 2026-04-30 21:31 | 40.74410 | 11.83333 | 37169 ft | 475 kts | 185° |
| 2026-04-30 21:32 | 40.64489 | 11.83996 | 37169 ft | 475 kts | 186° |
| 2026-04-30 21:32 | 40.57914 | 11.84434 | 37170 ft | 476 kts | 186° |
| 2026-04-30 21:33 | 40.47971 | 11.85096 | 37166 ft | 476 kts | 186° |
| 2026-04-30 21:34 | 40.41338 | 11.85536 | 37165 ft | 476 kts | 186° |
| 2026-04-30 21:34 | 40.31434 | 11.86193 | 37158 ft | 470 kts | 186° |
| 2026-04-30 21:35 | 40.28201 | 11.86415 | 36844 ft | 462 kts | 186° |
| 2026-04-30 21:35 | 40.24989 | 11.86630 | 36278 ft | 462 kts | 186° |
| 2026-04-30 21:35 | 40.21796 | 11.86835 | 35536 ft | 466 kts | 186° |
| 2026-04-30 21:35 | 40.18522 | 11.87042 | 34808 ft | 471 kts | 186° |
| 2026-04-30 21:36 | 40.15239 | 11.87253 | 34215 ft | 472 kts | 186° |
| 2026-04-30 21:36 | 40.11970 | 11.87471 | 33761 ft | 468 kts | 186° |
| 2026-04-30 21:37 | 40.02403 | 11.88110 | 32471 ft | 454 kts | 186° |
| 2026-04-30 21:37 | 39.99257 | 11.88314 | 32007 ft | 451 kts | 186° |
| 2026-04-30 21:37 | 39.96127 | 11.88516 | 31553 ft | 448 kts | 186° |
| 2026-04-30 21:37 | 39.93016 | 11.88719 | 31123 ft | 445 kts | 186° |
| 2026-04-30 21:38 | 39.89924 | 11.88925 | 30710 ft | 443 kts | 185° |
| 2026-04-30 21:38 | 39.86847 | 11.89486 | 30275 ft | 451 kts | 175° |
| 2026-04-30 21:38 | 39.83820 | 11.90704 | 29699 ft | 458 kts | 164° |
| 2026-04-30 21:38 | 39.80928 | 11.92311 | 29207 ft | 457 kts | 162° |
| 2026-04-30 21:39 | 39.78030 | 11.93993 | 28739 ft | 454 kts | 162° |
| 2026-04-30 21:39 | 39.75157 | 11.95672 | 28284 ft | 450 kts | 162° |
| 2026-04-30 21:39 | 39.72302 | 11.97328 | 27844 ft | 446 kts | 162° |
| 2026-04-30 21:39 | 39.69470 | 11.98952 | 27409 ft | 442 kts | 162° |
| 2026-04-30 21:40 | 39.66685 | 12.00532 | 26991 ft | 439 kts | 162° |
| 2026-04-30 21:40 | 39.63890 | 12.02107 | 26569 ft | 436 kts | 162° |
| 2026-04-30 21:40 | 39.61116 | 12.03663 | 26124 ft | 432 kts | 162° |
| 2026-04-30 21:40 | 39.58359 | 12.05206 | 25748 ft | 429 kts | 162° |
| 2026-04-30 21:41 | 39.55615 | 12.06739 | 25316 ft | 427 kts | 162° |
| 2026-04-30 21:41 | 39.52890 | 12.08260 | 24901 ft | 425 kts | 162° |
| 2026-04-30 21:41 | 39.50184 | 12.09770 | 24473 ft | 423 kts | 162° |
| 2026-04-30 21:41 | 39.47485 | 12.11276 | 24061 ft | 421 kts | 162° |
| 2026-04-30 21:42 | 39.44798 | 12.12773 | 23611 ft | 419 kts | 161° |
| 2026-04-30 21:42 | 39.42145 | 12.14251 | 23149 ft | 417 kts | 161° |
| 2026-04-30 21:42 | 39.39482 | 12.15733 | 22707 ft | 414 kts | 161° |
| 2026-04-30 21:42 | 39.36847 | 12.17200 | 22282 ft | 410 kts | 161° |
| 2026-04-30 21:43 | 39.34234 | 12.18653 | 21876 ft | 406 kts | 161° |
| 2026-04-30 21:43 | 39.31676 | 12.20074 | 21472 ft | 403 kts | 161° |
| 2026-04-30 21:43 | 39.29100 | 12.21503 | 21060 ft | 400 kts | 161° |
| 2026-04-30 21:43 | 39.26546 | 12.22919 | 20673 ft | 398 kts | 161° |
| 2026-04-30 21:44 | 39.24006 | 12.24326 | 20276 ft | 395 kts | 161° |
| 2026-04-30 21:44 | 39.21488 | 12.25719 | 19884 ft | 393 kts | 160° |
| 2026-04-30 21:44 | 39.19009 | 12.27090 | 19491 ft | 390 kts | 160° |
| 2026-04-30 21:44 | 39.16520 | 12.28466 | 19103 ft | 388 kts | 160° |
| 2026-04-30 21:45 | 39.14046 | 12.29832 | 18727 ft | 385 kts | 160° |
| 2026-04-30 21:45 | 39.11578 | 12.31193 | 18278 ft | 385 kts | 160° |
| 2026-04-30 21:45 | 39.09119 | 12.32550 | 17859 ft | 382 kts | 160° |
| 2026-04-30 21:45 | 39.06681 | 12.33894 | 17445 ft | 380 kts | 160° |
| 2026-04-30 21:46 | 39.04254 | 12.35230 | 17054 ft | 377 kts | 160° |
| 2026-04-30 21:46 | 39.01849 | 12.36554 | 16667 ft | 374 kts | 160° |
| 2026-04-30 21:46 | 38.99492 | 12.37850 | 16291 ft | 371 kts | 160° |
| 2026-04-30 21:46 | 38.97123 | 12.39151 | 15913 ft | 369 kts | 160° |
| 2026-04-30 21:47 | 38.94770 | 12.40443 | 15541 ft | 366 kts | 160° |
| 2026-04-30 21:47 | 38.92425 | 12.41731 | 15174 ft | 364 kts | 160° |
| 2026-04-30 21:47 | 38.90103 | 12.43004 | 14792 ft | 362 kts | 160° |
| 2026-04-30 21:47 | 38.87788 | 12.44271 | 14425 ft | 360 kts | 160° |
| 2026-04-30 21:48 | 38.85524 | 12.45538 | 14117 ft | 357 kts | 158° |
| 2026-04-30 21:48 | 38.83281 | 12.46872 | 13782 ft | 354 kts | 157° |
| 2026-04-30 21:48 | 38.81062 | 12.48222 | 13389 ft | 352 kts | 157° |
| 2026-04-30 21:48 | 38.78855 | 12.49567 | 13012 ft | 350 kts | 156° |
| 2026-04-30 21:49 | 38.76660 | 12.50902 | 12642 ft | 347 kts | 156° |
| 2026-04-30 21:49 | 38.74478 | 12.52222 | 12274 ft | 345 kts | 156° |
| 2026-04-30 21:49 | 38.72307 | 12.53531 | 11903 ft | 343 kts | 156° |
| 2026-04-30 21:49 | 38.70180 | 12.54810 | 11539 ft | 341 kts | 156° |
| 2026-04-30 21:50 | 38.68029 | 12.56102 | 11181 ft | 339 kts | 156° |
| 2026-04-30 21:50 | 38.65897 | 12.57380 | 10809 ft | 337 kts | 156° |
| 2026-04-30 21:50 | 38.63781 | 12.58648 | 10547 ft | 332 kts | 156° |
| 2026-04-30 21:50 | 38.61717 | 12.59885 | 10401 ft | 323 kts | 156° |
| 2026-04-30 21:51 | 38.59704 | 12.61089 | 10251 ft | 315 kts | 156° |
| 2026-04-30 21:51 | 38.57738 | 12.62265 | 10109 ft | 308 kts | 156° |
| 2026-04-30 21:51 | 38.55829 | 12.63406 | 9955 ft | 300 kts | 156° |
| 2026-04-30 21:51 | 38.53916 | 12.64547 | 9529 ft | 303 kts | 156° |
| 2026-04-30 21:52 | 38.52024 | 12.65677 | 9162 ft | 304 kts | 156° |
| 2026-04-30 21:52 | 38.50112 | 12.66818 | 8867 ft | 302 kts | 156° |
| 2026-04-30 21:52 | 38.48211 | 12.67951 | 8569 ft | 301 kts | 155° |
| 2026-04-30 21:52 | 38.46319 | 12.69078 | 8288 ft | 299 kts | 155° |
| 2026-04-30 21:53 | 38.44452 | 12.70190 | 8139 ft | 292 kts | 155° |
| 2026-04-30 21:53 | 38.42628 | 12.71275 | 7954 ft | 286 kts | 156° |
| 2026-04-30 21:53 | 38.40817 | 12.72351 | 7658 ft | 286 kts | 156° |
| 2026-04-30 21:53 | 38.39011 | 12.73424 | 7384 ft | 286 kts | 156° |
| 2026-04-30 21:54 | 38.37205 | 12.74494 | 7085 ft | 286 kts | 156° |
| 2026-04-30 21:54 | 38.35421 | 12.75551 | 6800 ft | 286 kts | 156° |
| 2026-04-30 21:54 | 38.33614 | 12.76623 | 6506 ft | 287 kts | 156° |
| 2026-04-30 21:54 | 38.31795 | 12.77703 | 6215 ft | 286 kts | 155° |
| 2026-04-30 21:55 | 38.30009 | 12.78760 | 5890 ft | 285 kts | 155° |
| 2026-04-30 21:55 | 38.28211 | 12.79823 | 5584 ft | 284 kts | 154° |
| 2026-04-30 21:55 | 38.26425 | 12.80879 | 5282 ft | 282 kts | 154° |
| 2026-04-30 21:55 | 38.24673 | 12.81914 | 4986 ft | 274 kts | 153° |
| 2026-04-30 21:56 | 38.22941 | 12.82875 | 4750 ft | 268 kts | 155° |
| 2026-04-30 21:56 | 38.21245 | 12.83785 | 4460 ft | 259 kts | 155° |
| 2026-04-30 21:56 | 38.19613 | 12.84661 | 4182 ft | 251 kts | 154° |
| 2026-04-30 21:56 | 38.18031 | 12.85513 | 3933 ft | 243 kts | 155° |
| 2026-04-30 21:57 | 38.16501 | 12.86339 | 3698 ft | 235 kts | 155° |
| 2026-04-30 21:57 | 38.15034 | 12.87131 | 3482 ft | 227 kts | 154° |
| 2026-04-30 21:57 | 38.13598 | 12.87906 | 3261 ft | 222 kts | 154° |
| 2026-04-30 21:57 | 38.12336 | 12.88950 | 3057 ft | 214 kts | 123° |
| 2026-04-30 21:58 | 38.11941 | 12.90657 | 3009 ft | 197 kts | 84° |
| 2026-04-30 21:58 | 38.12185 | 12.92326 | 2789 ft | 193 kts | 74° |
| 2026-04-30 21:58 | 38.12560 | 12.93943 | 2547 ft | 188 kts | 72° |
| 2026-04-30 21:58 | 38.13014 | 12.95486 | 2297 ft | 184 kts | 67° |
| 2026-04-30 21:59 | 38.13509 | 12.96970 | 2039 ft | 180 kts | 66° |
| 2026-04-30 21:59 | 38.13997 | 12.98419 | 1803 ft | 176 kts | 66° |
| 2026-04-30 21:59 | 38.14471 | 12.99835 | 1587 ft | 173 kts | 66° |
| 2026-04-30 22:00 | 38.15358 | 13.02481 | 1172 ft | 147 kts | 66° |
| 2026-04-30 22:00 | 38.16137 | 13.04774 | 751 ft | 142 kts | 65° |
| 2026-04-30 22:00 | 38.16536 | 13.05926 | 557 ft | 141 kts | 66° |
| 2026-04-30 22:01 | 38.16911 | 13.07081 | 355 ft | 141 kts | 67° |
| 2026-04-30 22:01 | 38.17286 | 13.08214 | 167 ft | 140 kts | 66° |
| 2026-04-30 22:01 | 38.17662 | 13.09336 | 52 ft | 128 kts | 67° |
| 2026-04-30 22:01 | 38.17928 | 13.10127 | 51 ft | 66 kts | 67° |
| 2026-04-30 22:02 | 38.18075 | 13.10566 | 52 ft | 45 kts | 66° |
| 2026-04-30 22:02 | 38.18152 | 13.10723 | 52 ft | 10 kts | 342° |
| 2026-04-30 22:02 | 38.18174 | 13.10645 | 52 ft | 10 kts | 278° |
| 2026-04-30 22:02 | 38.18183 | 13.10564 | 52 ft | 9 kts | 278° |
| 2026-04-30 22:03 | 38.18192 | 13.10483 | 48 ft | 9 kts | 277° |
| 2026-04-30 22:03 | 38.18208 | 13.10408 | 49 ft | 9 kts | 302° |
| 2026-04-30 22:03 | 38.18258 | 13.10362 | 52 ft | 10 kts | 331° |
| 2026-04-30 22:03 | 38.18321 | 13.10321 | 52 ft | 10 kts | 337° |
| 2026-04-30 22:04 | 38.18385 | 13.10286 | 52 ft | 10 kts | 337° |
| 2026-04-30 22:04 | 38.18447 | 13.10298 | 51 ft | 10 kts | 45° |
| 2026-04-30 22:04 | 38.18475 | 13.10371 | 51 ft | 0 kts | 66° |